createdAt,value
2018-03-14T00:00:43.439Z,71.08
2018-03-14T00:03:12.073Z,71.36
2018-03-14T00:05:40.561Z,71.18
2018-03-14T00:08:09.581Z,71.26
2018-03-14T00:10:38.483Z,71.21
2018-03-14T00:13:06.958Z,71.62
2018-03-14T00:15:36.664Z,71.34
2018-03-14T00:18:06.848Z,71.20
2018-03-14T00:20:35.568Z,71.50
2018-03-14T00:23:04.121Z,71.76
2018-03-14T00:25:32.628Z,72.04
2018-03-14T00:28:01.088Z,72.08
2018-03-14T00:30:29.771Z,72.19
2018-03-14T00:32:58.552Z,72.25
2018-03-14T00:35:27.041Z,72.27
2018-03-14T00:37:55.649Z,72.21
2018-03-14T00:40:24.134Z,72.32
2018-03-14T00:42:52.579Z,72.34
2018-03-14T00:45:22.612Z,72.61
2018-03-14T00:47:51.155Z,72.52
2018-03-14T00:50:19.725Z,72.51
2018-03-14T00:52:50.593Z,72.45
2018-03-14T00:55:19.088Z,73.04
2018-03-14T00:57:47.682Z,72.91
2018-03-14T01:00:16.225Z,73.13
2018-03-14T01:02:44.776Z,72.91
2018-03-14T01:05:13.321Z,72.82
2018-03-14T01:07:42.732Z,72.69
2018-03-14T01:10:11.234Z,72.88
2018-03-14T01:12:39.670Z,72.91
2018-03-14T01:15:08.950Z,72.85
2018-03-14T01:17:37.398Z,73.45
2018-03-14T01:20:05.842Z,73.32
2018-03-14T01:22:34.329Z,72.97
2018-03-14T01:25:02.892Z,72.59
2018-03-14T01:27:31.316Z,72.90
2018-03-14T01:30:00.256Z,72.85
2018-03-14T01:32:30.718Z,73.27
2018-03-14T01:34:59.373Z,73.43
2018-03-14T01:37:27.858Z,73.54
2018-03-14T01:39:56.363Z,73.44
2018-03-14T01:42:24.843Z,73.27
2018-03-14T01:44:54.170Z,72.99
2018-03-14T01:47:23.570Z,73.50
2018-03-14T01:49:52.155Z,73.62
2018-03-14T01:52:21.262Z,73.37
2018-03-14T01:54:51.076Z,73.13
2018-03-14T01:57:19.726Z,73.14
2018-03-14T01:59:48.509Z,73.95
2018-03-14T02:02:17.886Z,73.77
2018-03-14T02:04:46.394Z,73.82
2018-03-14T02:07:15.301Z,73.63
2018-03-14T02:09:43.858Z,73.26
2018-03-14T02:12:13.392Z,72.86
2018-03-14T02:14:42.741Z,72.75
2018-03-14T02:17:11.895Z,72.74
2018-03-14T02:19:40.396Z,72.84
2018-03-14T02:22:09.117Z,73.68
2018-03-14T02:24:37.552Z,73.67
2018-03-14T02:27:13.439Z,73.88
2018-03-14T02:29:42.124Z,74.35
2018-03-14T02:32:10.674Z,73.89
2018-03-14T02:34:39.152Z,74.14
2018-03-14T02:37:07.597Z,74.44
2018-03-14T02:39:36.041Z,74.75
2018-03-14T02:42:04.621Z,74.64
2018-03-14T02:44:33.518Z,74.38
2018-03-14T02:47:02.047Z,74.05
2018-03-14T02:49:31.028Z,74.10
2018-03-14T02:51:59.473Z,74.09
2018-03-14T02:54:27.996Z,73.43
2018-03-14T02:56:57.325Z,73.03
2018-03-14T02:59:25.726Z,72.46
2018-03-14T03:01:54.153Z,72.64
2018-03-14T03:04:23.491Z,73.08
2018-03-14T03:06:52.172Z,73.43
2018-03-14T03:09:20.673Z,73.40
2018-03-14T03:11:49.775Z,73.68
2018-03-14T03:14:18.402Z,73.74
2018-03-14T03:16:46.911Z,74.04
2018-03-14T03:19:16.239Z,73.70
2018-03-14T03:21:44.834Z,73.51
2018-03-14T03:24:13.560Z,73.22
2018-03-14T03:26:44.039Z,72.74
2018-03-14T03:29:13.551Z,72.74
2018-03-14T03:31:42.078Z,72.07
2018-03-14T03:34:12.051Z,71.92
2018-03-14T03:36:40.477Z,72.15
2018-03-14T03:39:09.012Z,72.48
2018-03-14T03:41:37.657Z,72.58
2018-03-14T03:44:06.304Z,72.46
2018-03-14T03:46:34.743Z,72.18
2018-03-14T03:49:03.598Z,72.03
2018-03-14T03:51:32.021Z,72.01
2018-03-14T03:54:00.458Z,71.87
2018-03-14T03:56:28.959Z,71.94
2018-03-14T03:59:09.938Z,72.21
2018-03-14T04:01:39.316Z,72.11
2018-03-14T04:04:07.801Z,72.18
2018-03-14T04:06:36.786Z,72.30
2018-03-14T04:09:05.732Z,71.85
2018-03-14T04:11:34.193Z,72.27
2018-03-14T04:14:03.179Z,72.41
2018-03-14T04:16:32.142Z,72.35
2018-03-14T04:19:00.569Z,72.20
2018-03-14T04:21:29.155Z,71.94
2018-03-14T04:23:57.640Z,71.75
2018-03-14T04:26:26.119Z,71.97
2018-03-14T04:28:54.909Z,71.75
2018-03-14T04:31:23.672Z,71.14
2018-03-14T04:33:52.111Z,70.43
2018-03-14T04:36:20.602Z,71.10
2018-03-14T04:38:50.357Z,71.43
2018-03-14T04:41:18.979Z,71.76
2018-03-14T04:43:47.579Z,71.83
2018-03-14T04:46:16.846Z,71.64
2018-03-14T04:48:46.328Z,71.63
2018-03-14T04:51:14.797Z,70.91
2018-03-14T04:53:43.969Z,70.51
2018-03-14T04:56:13.922Z,70.59
2018-03-14T04:58:42.614Z,70.38
2018-03-14T05:01:13.225Z,70.37
2018-03-14T05:03:42.128Z,70.37
2018-03-14T05:06:10.602Z,70.20
2018-03-14T05:08:39.151Z,70.55
2018-03-14T05:11:07.629Z,70.33
2018-03-14T05:13:36.143Z,70.23
2018-03-14T05:16:05.040Z,70.64
2018-03-14T05:18:33.822Z,70.05
2018-03-14T05:21:02.275Z,69.87
2018-03-14T05:23:30.806Z,69.32
2018-03-14T05:25:59.237Z,69.06
2018-03-14T05:28:27.745Z,69.44
2018-03-14T05:30:56.325Z,69.00
2018-03-14T05:33:25.026Z,69.25
2018-03-14T05:35:53.590Z,69.45
2018-03-14T05:38:22.422Z,69.28
2018-03-14T05:40:50.986Z,68.94
2018-03-14T05:43:19.576Z,69.48
2018-03-14T05:45:48.902Z,68.83
2018-03-14T05:48:17.404Z,68.28
2018-03-14T05:50:45.931Z,68.84
2018-03-14T05:53:14.571Z,68.67
2018-03-14T05:55:44.821Z,68.49
2018-03-14T05:58:14.162Z,68.82
2018-03-14T06:00:43.727Z,68.85
2018-03-14T06:03:12.835Z,68.81
2018-03-14T06:05:41.279Z,68.97
2018-03-14T06:08:09.770Z,69.30
2018-03-14T06:10:38.210Z,69.62
2018-03-14T06:13:06.644Z,69.46
2018-03-14T06:15:35.213Z,69.46
2018-03-14T06:18:03.790Z,69.64
2018-03-14T06:20:32.270Z,69.65
2018-03-14T06:23:01.951Z,69.12
2018-03-14T06:25:30.439Z,68.99
2018-03-14T06:27:58.994Z,68.86
2018-03-14T06:30:27.720Z,68.55
2018-03-14T06:32:56.176Z,68.05
2018-03-14T06:35:25.178Z,67.95
2018-03-14T06:37:53.915Z,67.11
2018-03-14T06:40:22.939Z,67.51
2018-03-14T06:42:51.491Z,67.33
2018-03-14T06:45:22.159Z,67.26
2018-03-14T06:47:50.695Z,68.21
2018-03-14T06:50:19.189Z,68.20
2018-03-14T06:52:48.018Z,67.60
2018-03-14T06:55:17.064Z,67.85
2018-03-14T06:57:45.737Z,67.57
2018-03-14T07:00:25.936Z,66.83
2018-03-14T07:03:06.190Z,66.93
2018-03-14T07:05:47.388Z,67.07
2018-03-14T07:08:15.924Z,67.63
2018-03-14T07:10:44.712Z,68.33
2018-03-14T07:13:13.632Z,68.96
2018-03-14T07:15:43.172Z,68.59
2018-03-14T07:18:11.691Z,68.01
2018-03-14T07:20:41.539Z,67.60
2018-03-14T07:23:10.089Z,67.87
2018-03-14T07:25:38.586Z,67.40
2018-03-14T07:28:07.109Z,67.77
2018-03-14T07:30:35.546Z,67.14
2018-03-14T07:33:09.651Z,67.51
2018-03-14T07:35:38.140Z,67.23
2018-03-14T07:38:06.589Z,67.29
2018-03-14T07:40:35.160Z,67.66
2018-03-14T07:43:03.637Z,67.68
2018-03-14T07:45:32.062Z,67.06
2018-03-14T07:48:00.568Z,67.41
2018-03-14T07:50:29.002Z,67.62
2018-03-14T07:52:57.441Z,67.62
2018-03-14T07:55:25.979Z,66.85
2018-03-14T07:57:54.465Z,67.15
2018-03-14T08:00:22.910Z,67.14
2018-03-14T08:02:51.535Z,66.36
2018-03-14T08:05:20.121Z,66.45
2018-03-14T08:07:48.633Z,67.11
2018-03-14T08:10:18.309Z,67.35
2018-03-14T08:12:46.962Z,67.79
2018-03-14T08:15:15.980Z,68.61
2018-03-14T08:17:45.589Z,67.80
2018-03-14T08:20:14.163Z,67.88
2018-03-14T08:22:42.767Z,68.33
2018-03-14T08:25:12.480Z,68.85
2018-03-14T08:27:41.010Z,69.42
2018-03-14T08:30:09.443Z,69.74
2018-03-14T08:32:38.308Z,69.83
2018-03-14T08:35:06.740Z,69.30
2018-03-14T08:37:35.334Z,69.56
2018-03-14T08:40:04.051Z,69.94
2018-03-14T08:42:32.470Z,69.61
2018-03-14T08:45:01.018Z,69.11
2018-03-14T08:47:30.077Z,68.68
2018-03-14T08:49:58.564Z,68.21
2018-03-14T08:52:27.080Z,69.53
2018-03-14T08:54:55.756Z,70.17
2018-03-14T08:57:24.247Z,70.12
2018-03-14T08:59:52.751Z,70.08
2018-03-14T09:02:21.329Z,70.95
2018-03-14T09:04:49.804Z,70.67
2018-03-14T09:07:18.421Z,70.71
2018-03-14T09:09:48.439Z,70.64
2018-03-14T09:12:16.967Z,70.24
2018-03-14T09:14:45.405Z,71.69
2018-03-14T09:17:14.259Z,71.46
2018-03-14T09:19:42.773Z,70.44
2018-03-14T09:22:11.295Z,69.59
2018-03-14T09:24:39.806Z,68.96
2018-03-14T09:27:08.246Z,69.33
2018-03-14T09:29:36.690Z,69.30
2018-03-14T09:32:09.266Z,69.76
2018-03-14T09:34:37.709Z,68.99
2018-03-14T09:37:06.135Z,68.42
2018-03-14T09:39:34.864Z,68.71
2018-03-14T09:42:03.508Z,69.21
2018-03-14T09:44:32.953Z,68.88
2018-03-14T09:47:01.862Z,68.44
2018-03-14T09:49:30.358Z,67.75
2018-03-14T09:51:58.858Z,68.90
2018-03-14T09:54:27.366Z,69.69
2018-03-14T09:56:55.803Z,69.06
2018-03-14T09:59:24.253Z,70.12
2018-03-14T10:01:52.764Z,71.19
2018-03-14T10:04:21.298Z,71.21
2018-03-14T10:06:49.957Z,71.24
2018-03-14T10:09:18.631Z,70.96
2018-03-14T10:11:47.127Z,71.07
2018-03-14T10:14:15.768Z,70.64
2018-03-14T10:16:44.351Z,70.66
2018-03-14T10:19:13.510Z,69.78
2018-03-14T10:21:42.049Z,68.86
2018-03-14T10:24:10.653Z,67.98
2018-03-14T10:26:39.119Z,68.39
2018-03-14T10:29:07.562Z,67.34
2018-03-14T10:31:36.242Z,67.58
2018-03-14T10:34:04.725Z,67.11
2018-03-14T10:36:33.168Z,66.48
2018-03-14T10:39:01.921Z,65.73
2018-03-14T10:41:30.391Z,66.18
2018-03-14T10:43:58.881Z,65.63
2018-03-14T10:46:27.360Z,64.86
2018-03-14T10:48:55.798Z,64.42
2018-03-14T10:51:24.301Z,67.29
2018-03-14T10:53:52.860Z,67.35
2018-03-14T10:56:21.339Z,66.11
2018-03-14T10:58:49.867Z,66.48
2018-03-14T11:01:19.030Z,66.25
2018-03-14T11:03:47.872Z,65.48
2018-03-14T11:06:16.382Z,64.92
2018-03-14T11:08:45.551Z,65.44
2018-03-14T11:11:14.129Z,66.66
2018-03-14T11:13:43.843Z,66.76
2018-03-14T11:16:13.164Z,65.89
2018-03-14T11:18:42.750Z,65.03
2018-03-14T11:21:11.555Z,64.72
2018-03-14T11:23:40.117Z,63.85
2018-03-14T11:26:09.006Z,63.47
2018-03-14T11:28:37.465Z,63.19
2018-03-14T11:31:06.025Z,61.86
2018-03-14T11:33:34.489Z,62.50
2018-03-14T11:36:02.939Z,61.39
2018-03-14T11:38:33.001Z,61.27
2018-03-14T11:41:01.619Z,59.92
2018-03-14T11:43:30.099Z,59.91
2018-03-14T11:45:59.910Z,59.90
2018-03-14T11:48:28.461Z,59.17
2018-03-14T11:50:56.967Z,59.01
2018-03-14T11:53:26.404Z,58.65
2018-03-14T11:55:55.086Z,57.56
2018-03-14T11:58:24.208Z,58.66
2018-03-14T12:00:54.335Z,59.87
2018-03-14T12:03:22.987Z,59.81
2018-03-14T12:05:51.691Z,60.29
2018-03-14T12:08:21.159Z,60.72
2018-03-14T12:10:49.741Z,62.09
2018-03-14T12:13:18.531Z,61.99
2018-03-14T12:15:47.149Z,61.78
2018-03-14T12:18:16.307Z,61.34
2018-03-14T12:20:45.408Z,60.05
2018-03-14T12:23:14.198Z,58.72
2018-03-14T12:25:44.051Z,59.36
2018-03-14T12:28:14.811Z,59.40
2018-03-14T12:30:43.651Z,59.03
2018-03-14T12:33:12.435Z,58.68
2018-03-14T12:35:41.254Z,58.48
2018-03-14T12:38:11.137Z,58.53
2018-03-14T12:40:39.701Z,58.27
2018-03-14T12:43:08.692Z,58.29
2018-03-14T12:45:37.114Z,58.09
2018-03-14T12:48:05.666Z,57.63
2018-03-14T12:50:35.894Z,56.84
2018-03-14T12:53:05.291Z,57.05
2018-03-14T12:55:33.977Z,56.35
2018-03-14T12:58:02.485Z,56.30
2018-03-14T13:00:30.942Z,57.68
2018-03-14T13:02:59.420Z,57.99
2018-03-14T13:05:28.953Z,57.64
2018-03-14T13:07:57.433Z,58.94
2018-03-14T13:10:25.994Z,58.59
2018-03-14T13:12:55.394Z,58.18
2018-03-14T13:15:24.185Z,57.93
2018-03-14T13:17:53.232Z,57.33
2018-03-14T13:20:21.973Z,57.85
2018-03-14T13:22:50.758Z,58.49
2018-03-14T13:25:19.439Z,57.44
2018-03-14T13:27:48.945Z,57.22
2018-03-14T13:30:17.632Z,57.00
2018-03-14T13:32:46.222Z,57.66
2018-03-14T13:35:17.055Z,59.23
2018-03-14T13:37:46.357Z,59.56
2018-03-14T13:40:15.562Z,58.61
2018-03-14T13:42:45.680Z,58.71
2018-03-14T13:45:14.885Z,58.84
2018-03-14T13:47:43.864Z,59.15
2018-03-14T13:50:13.630Z,59.40
2018-03-14T13:52:42.180Z,59.26
2018-03-14T13:55:10.968Z,59.30
2018-03-14T13:57:39.625Z,58.46
2018-03-14T14:00:08.142Z,58.28
2018-03-14T14:02:36.676Z,59.30
2018-03-14T14:05:05.713Z,59.49
2018-03-14T14:07:34.277Z,59.35
2018-03-14T14:10:02.947Z,59.68
2018-03-14T14:12:31.701Z,61.24
2018-03-14T14:15:00.150Z,61.82
2018-03-14T14:17:28.612Z,61.01
2018-03-14T14:19:57.867Z,60.84
2018-03-14T14:22:26.442Z,61.34
2018-03-14T14:24:55.179Z,60.45
2018-03-14T14:27:25.994Z,60.51
2018-03-14T14:29:57.461Z,62.07
2018-03-14T14:32:26.537Z,63.67
2018-03-14T14:34:55.231Z,63.49
2018-03-14T14:37:23.889Z,62.90
2018-03-14T14:39:56.385Z,63.16
2018-03-14T14:42:27.484Z,63.11
2018-03-14T14:44:57.007Z,62.11
2018-03-14T14:47:27.449Z,61.60
2018-03-14T14:49:58.049Z,62.04
2018-03-14T14:52:27.515Z,62.41
2018-03-14T14:54:56.993Z,62.22
2018-03-14T14:57:26.625Z,61.82
2018-03-14T14:59:55.478Z,62.33
2018-03-14T15:02:24.605Z,62.26
2018-03-14T15:04:53.504Z,62.64
2018-03-14T15:07:23.490Z,62.48
2018-03-14T15:09:54.479Z,63.92
2018-03-14T15:12:23.555Z,64.21
2018-03-14T15:14:52.258Z,64.17
2018-03-14T15:17:21.123Z,64.59
2018-03-14T15:19:50.130Z,64.52
2018-03-14T15:22:18.802Z,64.33
2018-03-14T15:24:47.497Z,64.50
2018-03-14T15:27:17.321Z,64.98
2018-03-14T15:29:49.635Z,65.27
2018-03-14T15:32:18.534Z,65.30
2018-03-14T15:34:48.289Z,64.35
2018-03-14T15:37:16.914Z,64.61
2018-03-14T15:39:46.158Z,64.96
2018-03-14T15:42:14.696Z,64.79
2018-03-14T15:44:44.272Z,65.01
2018-03-14T15:47:13.653Z,65.51
2018-03-14T15:49:42.134Z,66.38
2018-03-14T15:52:10.651Z,66.75
2018-03-14T15:54:39.607Z,67.12
2018-03-14T15:57:08.152Z,67.79
2018-03-14T15:59:36.635Z,67.67
2018-03-14T16:02:06.071Z,67.15
2018-03-14T16:04:35.421Z,66.80
2018-03-14T16:07:03.959Z,66.61
2018-03-14T16:09:33.201Z,66.70
2018-03-14T16:12:01.730Z,66.34
2018-03-14T16:14:30.218Z,66.41
2018-03-14T16:16:58.770Z,66.14
2018-03-14T16:19:27.278Z,66.73
2018-03-14T16:21:57.652Z,66.48
2018-03-14T16:24:26.191Z,66.71
2018-03-14T16:26:54.725Z,67.16
2018-03-14T16:29:23.495Z,66.71
2018-03-14T16:31:52.374Z,66.64
2018-03-14T16:34:21.517Z,66.78
2018-03-14T16:36:50.582Z,67.29
2018-03-14T16:39:21.849Z,67.91
2018-03-14T16:41:50.637Z,66.84
2018-03-14T16:44:19.536Z,67.02
2018-03-14T16:46:49.039Z,67.66
2018-03-14T16:49:17.584Z,67.38
2018-03-14T16:51:46.784Z,67.45
2018-03-14T16:54:16.032Z,67.79
2018-03-14T16:56:45.283Z,67.93
2018-03-14T16:59:14.109Z,67.84
2018-03-14T17:01:42.868Z,68.09
2018-03-14T17:04:11.413Z,68.38
2018-03-14T17:06:39.932Z,68.31
2018-03-14T17:09:08.516Z,68.12
2018-03-14T17:11:37.045Z,67.98
2018-03-14T17:14:05.662Z,68.51
2018-03-14T17:16:34.252Z,68.39
2018-03-14T17:19:02.876Z,68.18
2018-03-14T17:21:31.389Z,67.77
2018-03-14T17:23:59.893Z,67.94
2018-03-14T17:26:28.374Z,67.33
2018-03-14T17:28:56.884Z,67.36
2018-03-14T17:31:27.088Z,66.32
2018-03-14T17:33:55.918Z,67.14
2018-03-14T17:36:24.523Z,65.15
2018-03-14T17:38:54.807Z,63.33
2018-03-14T17:41:23.512Z,63.26
2018-03-14T17:43:52.237Z,63.67
2018-03-14T17:46:21.340Z,63.73
2018-03-14T17:48:50.222Z,63.23
2018-03-14T17:51:18.925Z,63.46
2018-03-14T17:53:48.459Z,63.25
2018-03-14T17:56:17.246Z,63.50
2018-03-14T17:58:46.087Z,63.76
2018-03-14T18:01:15.742Z,63.78
2018-03-14T18:03:44.714Z,63.96
2018-03-14T18:06:13.587Z,63.92
2018-03-14T18:08:42.820Z,64.74
2018-03-14T18:11:11.368Z,64.67
2018-03-14T18:13:41.218Z,64.57
2018-03-14T18:16:14.915Z,63.88
2018-03-14T18:18:43.565Z,64.21
2018-03-14T18:21:12.194Z,64.11
2018-03-14T18:23:40.885Z,64.14
2018-03-14T18:26:09.342Z,64.27
2018-03-14T18:28:37.901Z,65.26
2018-03-14T18:31:06.404Z,65.20
2018-03-14T18:33:34.959Z,65.25
2018-03-14T18:36:03.582Z,65.69
2018-03-14T18:38:32.845Z,65.90
2018-03-14T18:41:01.350Z,65.80
2018-03-14T18:43:30.012Z,65.27
2018-03-14T18:45:58.493Z,65.18
2018-03-14T18:48:26.971Z,64.29
2018-03-14T18:50:55.500Z,64.71
2018-03-14T18:53:24.595Z,64.68
2018-03-14T18:55:53.129Z,64.63
2018-03-14T18:58:21.713Z,64.62
2018-03-14T19:00:50.713Z,65.29
2018-03-14T19:03:19.396Z,65.19
2018-03-14T19:05:50.140Z,65.62
2018-03-14T19:08:18.923Z,65.91
2018-03-14T19:10:47.508Z,66.34
2018-03-14T19:13:16.436Z,66.96
2018-03-14T19:15:46.622Z,67.29
2018-03-14T19:18:15.197Z,68.36
2018-03-14T19:20:43.817Z,69.60
2018-03-14T19:23:13.196Z,70.19
2018-03-14T19:25:42.390Z,70.88
2018-03-14T19:28:11.072Z,71.02
2018-03-14T19:30:40.230Z,71.63
2018-03-14T19:33:08.710Z,71.35
2018-03-14T19:35:37.191Z,71.62
2018-03-14T19:38:05.846Z,71.92
2018-03-14T19:40:34.932Z,72.47
2018-03-14T19:43:03.452Z,72.20
2018-03-14T19:45:32.785Z,72.31
2018-03-14T19:48:01.235Z,71.98
2018-03-14T19:50:29.676Z,71.25
2018-03-14T19:52:58.500Z,71.63
2018-03-14T19:55:27.062Z,72.50
2018-03-14T19:57:55.649Z,71.93
2018-03-14T20:00:24.185Z,72.27
2018-03-14T20:02:52.768Z,72.20
2018-03-14T20:05:21.418Z,71.55
2018-03-14T20:07:50.809Z,71.82
2018-03-14T20:10:19.407Z,71.67
2018-03-14T20:12:48.093Z,71.81
2018-03-14T20:15:17.162Z,71.68
2018-03-14T20:17:46.571Z,72.07
2018-03-14T20:20:15.789Z,71.98
2018-03-14T20:22:44.646Z,71.77
2018-03-14T20:25:14.415Z,72.12
2018-03-14T20:27:43.083Z,72.12
2018-03-14T20:30:12.984Z,71.85
2018-03-14T20:32:42.942Z,72.46
2018-03-14T20:35:11.673Z,72.53
2018-03-14T20:37:40.378Z,72.45
2018-03-14T20:40:09.744Z,72.77
2018-03-14T20:42:46.631Z,72.93
2018-03-14T20:45:18.100Z,72.54
2018-03-14T20:47:49.834Z,72.47
2018-03-14T20:50:19.987Z,72.62
2018-03-14T20:52:48.618Z,73.17
2018-03-14T20:55:18.112Z,73.43
2018-03-14T20:57:46.593Z,73.07
2018-03-14T21:00:15.386Z,72.96
2018-03-14T21:02:44.835Z,72.83
2018-03-14T21:05:13.549Z,73.02
2018-03-14T21:07:42.469Z,72.88
2018-03-14T21:10:11.070Z,73.20
2018-03-14T21:12:39.726Z,73.15
2018-03-14T21:15:08.423Z,73.28
2018-03-14T21:17:37.340Z,73.20
2018-03-14T21:20:05.846Z,72.98
2018-03-14T21:22:34.364Z,72.86
2018-03-14T21:25:02.988Z,72.83
2018-03-14T21:27:31.461Z,72.67
2018-03-14T21:30:00.237Z,72.78
2018-03-14T21:32:28.752Z,73.01
2018-03-14T21:34:57.264Z,73.18
2018-03-14T21:37:25.980Z,72.76
2018-03-14T21:39:54.970Z,72.48
2018-03-14T21:42:23.525Z,72.29
2018-03-14T21:44:52.068Z,71.97
2018-03-14T21:47:21.132Z,71.74
2018-03-14T21:49:49.922Z,71.74
2018-03-14T21:52:18.744Z,71.90
2018-03-14T21:54:48.008Z,71.70
2018-03-14T21:57:19.392Z,71.92
2018-03-14T21:59:47.976Z,72.55
2018-03-14T22:02:16.554Z,72.89
2018-03-14T22:04:45.116Z,72.68
2018-03-14T22:07:13.790Z,72.52
2018-03-14T22:09:43.516Z,72.40
2018-03-14T22:12:12.218Z,72.35
2018-03-14T22:14:40.871Z,72.52
2018-03-14T22:17:09.802Z,72.51
2018-03-14T22:19:38.254Z,72.54
2018-03-14T22:22:06.782Z,72.47
2018-03-14T22:24:35.858Z,72.42
2018-03-14T22:27:04.412Z,73.18
2018-03-14T22:29:32.882Z,73.27
2018-03-14T22:32:01.490Z,73.26
2018-03-14T22:34:29.979Z,73.18
2018-03-14T22:36:59.350Z,73.22
2018-03-14T22:39:28.357Z,73.39
2018-03-14T22:41:56.832Z,73.26
2018-03-14T22:44:25.414Z,73.45
2018-03-14T22:46:55.375Z,73.25
2018-03-14T22:49:23.913Z,73.93
2018-03-14T22:51:52.422Z,73.81
2018-03-14T22:54:21.518Z,73.97
2018-03-14T22:56:50.168Z,73.71
2018-03-14T22:59:18.681Z,73.70
2018-03-14T23:01:47.489Z,73.97
2018-03-14T23:04:16.896Z,73.91
2018-03-14T23:06:45.674Z,74.22
2018-03-14T23:09:14.532Z,74.52
2018-03-14T23:11:43.102Z,74.20
2018-03-14T23:14:11.563Z,74.38
2018-03-14T23:16:40.066Z,74.49
2018-03-14T23:19:08.522Z,74.50
2018-03-14T23:21:37.751Z,74.67
2018-03-14T23:24:06.847Z,74.38
2018-03-14T23:26:35.319Z,74.64
2018-03-14T23:29:03.793Z,74.56
2018-03-14T23:31:32.488Z,74.58
2018-03-14T23:34:01.039Z,74.66
2018-03-14T23:36:29.552Z,74.47
2018-03-14T23:39:00.620Z,74.21
2018-03-14T23:41:29.995Z,74.65
2018-03-14T23:43:58.505Z,74.29
2018-03-14T23:46:27.880Z,74.33
2018-03-14T23:48:56.359Z,74.22
2018-03-14T23:51:24.875Z,73.67
2018-03-14T23:53:53.837Z,73.94
2018-03-14T23:56:22.318Z,74.22
2018-03-14T23:58:50.797Z,73.86
